Time;durP1;ratioP1;P1;durP2;ratioP2;P2;SDS_P1;SDS_P2;PMS_P1;PMS_P2;Temp;Humidity;BMP_temperature;BMP_pressure;BME280_temperature;BME280_humidity;BME280_pressure;Samples;Min_cycle;Max_cycle;Signal;HPM_P1;HPM_P2
2023/10/02 00:01:17;;;;;;;13.97;13.10;;;13.20;99.90;;;;;;4849748;29;20448;-50
2023/10/02 00:03:48;;;;;;;14.47;13.37;;;13.20;99.90;;;;;;4849640;29;20757;-48
2023/10/02 00:06:16;;;;;;;14.63;13.63;;;13.20;99.90;;;;;;4847804;29;20513;-49
2023/10/02 00:08:42;;;;;;;14.87;13.83;;;13.10;99.90;;;;;;4849542;29;20769;-46
2023/10/02 00:11:39;;;;;;;15.13;13.70;;;13.10;99.90;;;;;;4849763;29;20898;-43
2023/10/02 00:14:20;;;;;;;14.90;13.80;;;13.10;99.90;;;;;;4849406;29;20936;-44
2023/10/02 00:16:59;;;;;;;14.90;13.70;;;13.10;99.90;;;;;;4849364;29;20433;-44
2023/10/02 00:19:43;;;;;;;14.27;13.30;;;13.00;99.90;;;;;;4849413;29;20440;-43
2023/10/02 00:25:07;;;;;;;14.50;13.40;;;13.00;99.90;;;;;;4849273;29;20417;-45
2023/10/02 00:27:34;;;;;;;14.20;13.23;;;12.90;99.90;;;;;;4849512;29;20532;-46
2023/10/02 00:30:00;;;;;;;14.13;13.13;;;12.90;99.90;;;;;;4849102;29;20513;-48
2023/10/02 00:32:29;;;;;;;13.97;13.07;;;12.90;99.90;;;;;;4849286;29;20434;-46
2023/10/02 00:34:55;;;;;;;14.73;13.63;;;12.80;99.90;;;;;;4848807;29;20448;-48
2023/10/02 00:37:21;;;;;;;15.23;13.83;;;12.80;99.90;;;;;;4849130;29;20501;-40
2023/10/02 00:39:52;;;;;;;14.63;13.57;;;12.80;99.90;;;;;;4849064;29;20532;-45
2023/10/02 00:42:24;;;;;;;14.57;13.67;;;12.80;99.90;;;;;;4849142;29;20688;-44
2023/10/02 00:44:57;;;;;;;15.30;14.10;;;12.70;99.90;;;;;;4849146;29;20473;-46
2023/10/02 00:47:52;;;;;;;15.13;14.13;;;12.70;99.90;;;;;;4849416;29;20460;-44
2023/10/02 00:50:23;;;;;;;14.67;13.57;;;12.70;99.90;;;;;;4848751;29;20452;-47
2023/10/02 00:53:04;;;;;;;14.80;13.70;;;12.70;99.90;;;;;;4848038;29;20429;-45
2023/10/02 00:55:32;;;;;;;14.43;13.33;;;12.70;99.90;;;;;;4848512;29;20519;-45
2023/10/02 00:58:03;;;;;;;14.90;13.70;;;12.70;99.90;;;;;;4848697;29;20437;-46
2023/10/02 01:00:35;;;;;;;14.17;13.30;;;12.70;99.90;;;;;;4848760;29;20434;-43
2023/10/02 01:03:04;;;;;;;15.03;13.83;;;12.70;99.90;;;;;;4848951;29;20428;-44
2023/10/02 01:05:42;;;;;;;14.00;13.00;;;12.70;99.90;;;;;;4848370;29;20466;-44
2023/10/02 01:08:25;;;;;;;14.10;13.20;;;12.70;99.90;;;;;;4849147;29;20996;-45
2023/10/02 01:10:57;;;;;;;14.60;13.57;;;12.70;99.90;;;;;;4848378;29;20441;-48
2023/10/02 01:13:34;;;;;;;14.80;13.77;;;12.70;99.90;;;;;;4846802;29;21004;-47
2023/10/02 01:16:09;;;;;;;14.40;13.40;;;12.70;99.90;;;;;;4848233;29;20744;-44
2023/10/02 01:18:38;;;;;;;15.10;13.90;;;12.70;99.90;;;;;;4848253;29;20433;-46
2023/10/02 01:21:11;;;;;;;14.20;13.20;;;12.70;99.90;;;;;;4848692;29;20586;-46
2023/10/02 01:24:09;;;;;;;14.70;13.57;;;12.70;99.90;;;;;;4848524;29;20788;-42
2023/10/02 01:26:41;;;;;;;14.83;13.80;;;12.70;99.90;;;;;;4848459;29;20931;-46
2023/10/02 01:29:10;;;;;;;14.47;13.37;;;12.70;99.90;;;;;;4848162;29;20968;-41
2023/10/02 01:31:44;;;;;;;14.83;13.87;;;12.70;99.90;;;;;;4848092;29;21036;-43
2023/10/02 01:34:33;;;;;;;15.20;14.03;;;12.70;99.90;;;;;;4848390;29;20524;-46
2023/10/02 01:36:57;;;;;;;15.40;14.10;;;12.60;99.90;;;;;;4848055;29;20441;-41
2023/10/02 01:39:23;;;;;;;15.47;14.37;;;12.60;99.90;;;;;;4848028;29;20441;-45
2023/10/02 01:41:52;;;;;;;14.40;13.50;;;12.60;99.90;;;;;;4846516;29;20442;-45
2023/10/02 01:44:20;;;;;;;14.87;13.70;;;12.60;99.90;;;;;;4847851;29;20624;-47
2023/10/02 01:46:49;;;;;;;14.27;13.17;;;12.60;99.90;;;;;;4847715;29;20469;-45
2023/10/02 01:49:25;;;;;;;14.73;13.73;;;12.60;99.90;;;;;;4848199;29;20448;-44
2023/10/02 01:52:01;;;;;;;14.77;13.80;;;12.60;99.90;;;;;;4847714;29;20433;-46
2023/10/02 01:54:29;;;;;;;14.80;13.80;;;12.60;99.90;;;;;;4848073;29;20500;-46
2023/10/02 01:56:56;;;;;;;14.30;13.30;;;12.60;99.90;;;;;;4846502;29;20455;-45
2023/10/02 01:59:24;;;;;;;14.10;13.10;;;12.50;99.90;;;;;;4847892;29;20428;-46
2023/10/02 02:01:57;;;;;;;15.73;14.57;;;12.60;99.90;;;;;;4847753;29;20432;-41
2023/10/02 02:04:33;;;;;;;14.87;13.77;;;12.50;99.90;;;;;;4846474;29;20860;-43
2023/10/02 02:07:00;;;;;;;14.20;13.30;;;12.50;99.90;;;;;;4847742;29;20475;-46
2023/10/02 02:09:30;;;;;;;14.97;13.97;;;12.50;99.90;;;;;;4847487;29;20488;-45
2023/10/02 02:12:15;;;;;;;14.90;13.80;;;12.50;99.90;;;;;;4847400;29;20443;-43
2023/10/02 02:14:49;;;;;;;14.00;13.03;;;12.40;99.90;;;;;;4847551;29;20421;-42
2023/10/02 02:17:23;;;;;;;14.67;13.67;;;12.40;99.90;;;;;;4847472;29;20500;-41
2023/10/02 02:19:49;;;;;;;14.30;13.30;;;12.40;99.90;;;;;;4847583;29;21004;-46
2023/10/02 02:22:19;;;;;;;14.80;13.60;;;12.40;99.90;;;;;;4847426;29;20459;-42
2023/10/02 02:24:46;;;;;;;14.70;13.70;;;12.40;99.90;;;;;;4847525;29;20271;-48
2023/10/02 02:27:12;;;;;;;14.60;13.60;;;12.30;99.90;;;;;;4845697;29;20572;-43
2023/10/02 02:29:38;;;;;;;15.20;14.00;;;12.40;99.90;;;;;;4847764;29;20437;-41
2023/10/02 02:32:07;;;;;;;15.17;14.00;;;12.30;99.90;;;;;;4846979;29;20434;-46
2023/10/02 02:34:32;;;;;;;14.40;13.50;;;12.30;99.90;;;;;;4847168;29;20204;-45
2023/10/02 02:36:59;;;;;;;14.33;13.13;;;12.20;99.90;;;;;;4847544;29;20804;-50
2023/10/02 02:39:27;;;;;;;14.07;13.07;;;12.20;99.90;;;;;;4846781;29;20184;-44
2023/10/02 02:42:18;;;;;;;14.80;13.70;;;12.20;99.90;;;;;;4846841;29;20448;-45
2023/10/02 02:44:49;;;;;;;15.00;13.80;;;12.20;99.90;;;;;;4846264;29;20859;-46
2023/10/02 02:47:21;;;;;;;14.77;13.77;;;12.20;99.90;;;;;;4847404;29;20931;-48
2023/10/02 02:49:50;;;;;;;14.60;13.50;;;12.20;99.90;;;;;;4847291;29;20814;-44
2023/10/02 02:52:32;;;;;;;14.50;13.40;;;12.20;99.90;;;;;;4847393;29;20504;-46
2023/10/02 02:55:12;;;;;;;14.80;13.80;;;12.10;99.90;;;;;;4847041;29;20437;-46
2023/10/02 02:57:40;;;;;;;14.17;13.27;;;12.10;99.90;;;;;;4846781;29;20947;-43
2023/10/02 03:02:53;;;;;;;14.87;13.83;;;12.10;99.90;;;;;;4847379;29;20492;-48
2023/10/02 03:05:21;;;;;;;14.07;13.17;;;12.10;99.90;;;;;;4846047;29;20449;-46
2023/10/02 03:07:56;;;;;;;14.43;13.10;;;12.10;99.90;;;;;;4846759;29;20694;-46
2023/10/02 03:10:23;;;;;;;14.60;13.50;;;12.00;99.90;;;;;;4847402;29;20464;-49
2023/10/02 03:12:50;;;;;;;14.13;12.83;;;12.00;99.90;;;;;;4847244;29;20896;-43
2023/10/02 03:15:17;;;;;;;14.10;12.97;;;12.00;99.90;;;;;;4848742;29;20769;-47
2023/10/02 03:17:48;;;;;;;14.10;13.17;;;12.00;99.90;;;;;;4850300;29;20467;-48
2023/10/02 03:20:24;;;;;;;14.63;13.63;;;12.00;99.90;;;;;;4850212;29;20944;-45
2023/10/02 03:22:53;;;;;;;14.30;13.33;;;12.00;99.90;;;;;;4849201;29;20551;-44
2023/10/02 03:27:54;;;;;;;14.17;12.97;;;12.00;99.90;;;;;;4850129;29;20464;-45
2023/10/02 03:30:35;;;;;;;13.57;12.67;;;11.90;99.90;;;;;;4850135;29;21022;-45
2023/10/02 03:33:02;;;;;;;13.47;12.57;;;11.90;99.90;;;;;;4850326;29;20421;-43
2023/10/02 03:35:28;;;;;;;14.67;13.37;;;11.90;99.90;;;;;;4850193;29;20627;-49
2023/10/02 03:37:54;;;;;;;14.43;13.43;;;11.90;99.90;;;;;;4850269;29;20463;-47
2023/10/02 03:40:25;;;;;;;13.97;12.87;;;11.80;99.90;;;;;;4849984;29;20620;-43
2023/10/02 03:42:54;;;;;;;13.50;12.50;;;11.80;99.90;;;;;;4849846;29;20202;-43
2023/10/02 03:45:38;;;;;;;14.63;13.50;;;11.80;99.90;;;;;;4849930;29;20489;-43
2023/10/02 03:48:07;;;;;;;14.40;13.50;;;11.80;99.90;;;;;;4850062;29;20432;-47
2023/10/02 03:50:37;;;;;;;15.00;13.80;;;11.80;99.90;;;;;;4849902;29;20580;-44
2023/10/02 03:53:12;;;;;;;13.90;12.90;;;11.70;99.90;;;;;;4850235;29;20413;-47
2023/10/02 03:55:39;;;;;;;15.47;14.37;;;11.80;99.90;;;;;;4849982;29;20506;-40
2023/10/02 03:58:06;;;;;;;14.50;13.30;;;11.70;99.90;;;;;;4849928;29;20462;-44
2023/10/02 04:00:43;;;;;;;14.70;13.60;;;11.70;99.90;;;;;;4849682;29;20512;-44
2023/10/02 04:03:09;;;;;;;14.77;13.57;;;11.70;99.90;;;;;;4850010;29;20464;-41
2023/10/02 04:05:44;;;;;;;14.37;13.23;;;11.70;99.90;;;;;;4849276;29;20507;-49
2023/10/02 04:10:56;;;;;;;14.50;13.40;;;11.60;99.90;;;;;;4849920;29;20421;-46
2023/10/02 04:13:29;;;;;;;13.83;12.83;;;11.60;99.90;;;;;;4849500;29;20595;-46
2023/10/02 04:16:28;;;;;;;13.97;12.90;;;11.60;99.90;;;;;;4849084;29;20787;-47
2023/10/02 04:18:46;;;;;;;12.90;12.00;;;11.60;99.90;;;;;;4849276;29;20917;-44
2023/10/02 04:21:13;;;;;;;13.73;12.67;;;11.60;99.90;;;;;;4849547;29;20649;-45
2023/10/02 04:23:42;;;;;;;14.07;13.10;;;11.60;99.90;;;;;;4849730;29;20430;-46
2023/10/02 04:26:21;;;;;;;14.50;13.40;;;11.60;99.90;;;;;;4849342;29;20499;-47
2023/10/02 04:28:55;;;;;;;14.67;13.47;;;11.60;99.90;;;;;;4849154;29;21348;-42
2023/10/02 04:31:29;;;;;;;14.00;13.00;;;11.60;99.90;;;;;;4849581;29;20480;-46
2023/10/02 04:36:41;;;;;;;14.07;12.97;;;11.50;99.90;;;;;;4849666;29;20436;-41
2023/10/02 04:42:12;;;;;;;13.50;12.57;;;11.50;99.90;;;;;;4849109;29;20432;-46
2023/10/02 04:44:56;;;;;;;14.60;13.60;;;11.50;99.90;;;;;;4848754;29;20429;-50
2023/10/02 04:47:26;;;;;;;13.70;12.70;;;11.50;99.90;;;;;;4848799;29;20484;-42
2023/10/02 04:55:24;;;;;;;15.20;14.20;;;11.40;99.90;;;;;;4849044;29;20852;-43
2023/10/02 04:57:55;;;;;;;14.47;13.33;;;11.50;99.90;;;;;;4848349;29;20425;-44
2023/10/02 05:00:28;;;;;;;14.07;13.17;;;11.40;99.90;;;;;;4847725;29;20433;-43
2023/10/02 05:03:09;;;;;;;14.60;13.60;;;11.40;99.90;;;;;;4847865;29;20437;-45
2023/10/02 05:05:48;;;;;;;14.23;13.13;;;11.40;99.90;;;;;;4848195;29;20425;-45
2023/10/02 05:08:19;;;;;;;14.10;12.80;;;11.40;99.90;;;;;;4848682;29;20505;-47
2023/10/02 05:10:47;;;;;;;14.20;13.00;;;11.40;99.90;;;;;;4848945;29;21145;-44
2023/10/02 05:13:14;;;;;;;13.53;12.43;;;11.40;99.90;;;;;;4848667;29;20428;-49
2023/10/02 05:16:06;;;;;;;14.80;13.70;;;11.40;99.90;;;;;;4848266;29;20962;-47
2023/10/02 05:18:33;;;;;;;13.37;12.47;;;11.40;99.90;;;;;;4848534;29;21045;-47
2023/10/02 05:21:01;;;;;;;14.13;12.93;;;11.40;99.90;;;;;;4848380;29;21009;-48
2023/10/02 05:23:30;;;;;;;14.23;13.10;;;11.50;99.90;;;;;;4848372;29;20456;-43
2023/10/02 05:26:00;;;;;;;14.40;13.07;;;11.40;99.90;;;;;;4848507;29;20437;-43
2023/10/02 05:28:42;;;;;;;14.53;13.33;;;11.40;99.90;;;;;;4848457;29;21241;-44
2023/10/02 05:31:08;;;;;;;12.73;11.93;;;11.50;99.90;;;;;;4847845;29;20465;-45
2023/10/02 05:33:37;;;;;;;13.83;12.73;;;11.50;99.90;;;;;;4848478;29;20436;-45
2023/10/02 05:36:07;;;;;;;13.57;12.60;;;11.50;99.90;;;;;;4846692;29;20976;-43
2023/10/02 05:38:33;;;;;;;12.90;11.70;;;11.50;99.90;;;;;;4847761;29;20443;-44
2023/10/02 05:40:59;;;;;;;13.67;12.60;;;11.50;99.90;;;;;;4847856;29;20486;-45
2023/10/02 05:43:31;;;;;;;13.90;12.93;;;11.60;99.90;;;;;;4847873;29;20441;-48
2023/10/02 05:45:57;;;;;;;13.70;12.90;;;11.60;99.90;;;;;;4846736;29;20196;-44
2023/10/02 05:50:56;;;;;;;14.77;13.47;;;11.60;99.90;;;;;;4848091;29;20443;-45
2023/10/02 05:53:29;;;;;;;13.83;12.73;;;11.70;99.90;;;;;;4847864;29;21032;-45
2023/10/02 05:58:39;;;;;;;14.27;13.17;;;11.70;99.90;;;;;;4848282;29;20436;-46
2023/10/02 06:01:18;;;;;;;13.53;12.63;;;11.80;99.90;;;;;;4847741;29;20535;-46
2023/10/02 06:03:49;;;;;;;13.50;12.70;;;11.90;99.90;;;;;;4847918;29;20452;-41
2023/10/02 06:06:15;;;;;;;13.70;12.70;;;11.90;99.90;;;;;;4847976;29;20472;-46
2023/10/02 06:08:49;;;;;;;13.90;12.90;;;12.00;99.90;;;;;;4847832;29;20800;-48
2023/10/02 06:11:25;;;;;;;13.07;12.00;;;12.00;99.90;;;;;;4848140;29;20486;-42
2023/10/02 06:13:56;;;;;;;13.13;12.03;;;12.10;99.90;;;;;;4847527;29;20477;-46
2023/10/02 06:16:29;;;;;;;14.23;13.10;;;12.20;99.90;;;;;;4847499;29;20908;-46
2023/10/02 06:19:02;;;;;;;13.13;12.17;;;12.30;99.90;;;;;;4847754;29;20440;-42
2023/10/02 06:24:34;;;;;;;13.90;12.90;;;12.40;99.90;;;;;;4855987;29;20531;-45
2023/10/02 06:27:12;;;;;;;13.10;12.30;;;12.60;99.90;;;;;;4847675;29;20473;-44
2023/10/02 06:29:38;;;;;;;14.10;13.03;;;12.70;99.90;;;;;;4847644;29;20670;-48
2023/10/02 06:32:07;;;;;;;15.10;13.80;;;12.80;99.90;;;;;;4847492;29;20429;-46
2023/10/02 06:34:37;;;;;;;14.53;13.33;;;12.90;99.90;;;;;;4847535;29;20955;-44
2023/10/02 06:37:16;;;;;;;13.97;12.87;;;13.00;99.90;;;;;;4847958;29;20429;-42
2023/10/02 06:40:04;;;;;;;14.10;13.10;;;13.20;99.90;;;;;;4847458;29;20752;-45
2023/10/02 06:42:31;;;;;;;15.03;13.77;;;13.20;99.90;;;;;;4844838;29;20444;-43
2023/10/02 06:45:01;;;;;;;15.07;14.00;;;13.40;99.90;;;;;;4845937;29;20441;-43
2023/10/02 06:47:32;;;;;;;15.00;13.90;;;13.50;99.90;;;;;;4846881;29;20529;-45
2023/10/02 06:50:03;;;;;;;14.00;12.90;;;13.60;99.90;;;;;;4846700;29;20429;-48
2023/10/02 06:52:33;;;;;;;14.30;13.13;;;13.70;99.90;;;;;;4850608;29;20421;-48
2023/10/02 06:55:01;;;;;;;14.50;13.47;;;13.80;99.90;;;;;;4850211;29;20754;-46
2023/10/02 06:57:28;;;;;;;14.47;13.40;;;13.90;99.90;;;;;;4850532;29;20441;-49
2023/10/02 06:59:54;;;;;;;14.23;13.17;;;14.00;99.90;;;;;;4850451;29;20429;-42
2023/10/02 07:02:25;;;;;;;15.30;14.20;;;14.20;99.90;;;;;;4850537;29;20955;-48
2023/10/02 07:04:52;;;;;;;14.33;13.20;;;14.30;99.90;;;;;;4849802;29;20588;-44
2023/10/02 07:07:24;;;;;;;14.20;13.10;;;14.40;99.90;;;;;;4850300;29;20460;-46
2023/10/02 07:09:55;;;;;;;14.80;13.60;;;14.50;99.90;;;;;;4849947;29;21324;-49
2023/10/02 07:12:21;;;;;;;13.70;12.80;;;14.60;99.90;;;;;;4850901;29;20445;-43
2023/10/02 07:14:48;;;;;;;13.80;12.80;;;14.70;99.90;;;;;;4850524;29;20509;-47
2023/10/02 07:17:16;;;;;;;14.20;13.10;;;14.80;99.90;;;;;;4850817;29;20837;-44
2023/10/02 07:19:52;;;;;;;13.97;12.70;;;15.00;99.90;;;;;;4850419;29;20437;-43
2023/10/02 07:22:23;;;;;;;14.20;13.20;;;15.10;99.90;;;;;;4851145;29;21006;-44
2023/10/02 07:24:55;;;;;;;14.33;13.20;;;15.20;99.90;;;;;;4850405;29;20431;-45
2023/10/02 07:27:28;;;;;;;13.80;12.90;;;15.40;99.90;;;;;;4850148;29;21011;-42
2023/10/02 07:30:01;;;;;;;13.37;12.40;;;15.50;99.90;;;;;;4850817;29;20788;-45
2023/10/02 07:32:32;;;;;;;13.67;12.70;;;15.70;99.90;;;;;;4851062;29;20429;-41
2023/10/02 07:35:10;;;;;;;13.43;12.50;;;15.80;99.90;;;;;;4849027;29;20804;-47
2023/10/02 07:37:38;;;;;;;13.60;12.70;;;16.00;99.90;;;;;;4850681;29;20788;-45
2023/10/02 07:40:06;;;;;;;13.80;12.80;;;16.20;99.90;;;;;;4850910;29;20772;-46
2023/10/02 07:42:32;;;;;;;14.90;13.60;;;16.40;99.90;;;;;;4850482;29;21267;-47
2023/10/02 07:45:26;;;;;;;14.27;13.07;;;16.50;99.90;;;;;;4848713;29;20509;-44
2023/10/02 07:50:41;;;;;;;14.20;13.20;;;17.00;99.90;;;;;;4850119;29;20793;-41
2023/10/02 07:53:08;;;;;;;13.90;12.90;;;17.20;99.90;;;;;;4850129;29;20420;-43
2023/10/02 07:55:40;;;;;;;13.93;12.83;;;17.40;99.90;;;;;;4849940;29;20421;-41
2023/10/02 07:58:08;;;;;;;15.00;13.83;;;17.70;99.90;;;;;;4848215;29;20755;-49
2023/10/02 08:00:38;;;;;;;14.20;13.10;;;18.10;99.90;;;;;;4849291;29;20432;-41
2023/10/02 08:05:56;;;;;;;14.20;13.20;;;18.80;99.60;;;;;;4850076;29;20465;-48
2023/10/02 08:08:34;;;;;;;14.13;13.10;;;19.20;97.90;;;;;;4849788;29;20528;-48
2023/10/02 08:11:10;;;;;;;13.30;12.50;;;19.70;97.00;;;;;;4849418;29;20432;-45
2023/10/02 08:13:37;;;;;;;14.00;13.00;;;20.40;96.00;;;;;;4849020;29;20445;-47
2023/10/02 08:16:15;;;;;;;14.43;13.33;;;21.10;93.70;;;;;;4849748;29;20424;-43
2023/10/02 08:18:58;;;;;;;13.57;12.67;;;21.90;91.40;;;;;;4849477;29;20424;-49
2023/10/02 08:21:45;;;;;;;13.57;12.67;;;22.50;89.90;;;;;;4849670;29;20504;-46
2023/10/02 08:24:13;;;;;;;12.93;12.07;;;23.10;85.80;;;;;;4849980;29;20418;-49
2023/10/02 08:26:43;;;;;;;14.30;13.40;;;23.50;78.60;;;;;;4849319;29;20472;-44
2023/10/02 08:29:13;;;;;;;13.93;12.93;;;23.80;74.50;;;;;;4849782;29;20448;-45
2023/10/02 08:31:49;;;;;;;14.20;13.20;;;24.40;74.30;;;;;;4849485;29;20441;-45
2023/10/02 08:34:19;;;;;;;14.23;13.23;;;25.10;68.30;;;;;;4849353;29;20428;-43
2023/10/02 08:36:52;;;;;;;14.10;13.10;;;25.40;65.00;;;;;;4849539;29;20448;-42
2023/10/02 08:39:22;;;;;;;13.93;13.03;;;25.40;62.50;;;;;;4849421;29;20421;-48
2023/10/02 08:41:50;;;;;;;13.23;12.37;;;25.90;59.90;;;;;;4849171;29;20801;-45
2023/10/02 08:44:17;;;;;;;14.27;13.27;;;26.40;57.90;;;;;;4849369;29;20945;-43
2023/10/02 08:46:43;;;;;;;13.87;12.90;;;26.60;56.60;;;;;;4848942;29;20472;-42
2023/10/02 08:49:12;;;;;;;14.00;13.10;;;27.10;56.40;;;;;;4848133;29;20432;-48
2023/10/02 08:51:39;;;;;;;14.30;13.40;;;27.70;52.50;;;;;;4849144;29;21032;-47
2023/10/02 08:54:05;;;;;;;13.90;12.87;;;28.10;51.00;;;;;;4849000;29;21012;-42
2023/10/02 08:56:45;;;;;;;12.90;12.00;;;28.50;49.40;;;;;;4847449;29;20448;-46
2023/10/02 08:59:16;;;;;;;13.90;13.10;;;28.80;48.80;;;;;;4848905;29;20420;-49
2023/10/02 09:01:42;;;;;;;13.40;12.50;;;29.30;46.50;;;;;;4848804;29;21035;-46
2023/10/02 09:06:57;;;;;;;14.27;12.87;;;29.90;43.50;;;;;;4849051;29;20564;-48
2023/10/02 09:09:36;;;;;;;12.20;11.50;;;30.10;41.80;;;;;;4848820;29;20477;-46
2023/10/02 09:12:03;;;;;;;13.77;12.97;;;30.10;41.00;;;;;;4848028;29;20440;-47
2023/10/02 09:20:03;;;;;;;14.13;13.23;;;31.20;38.80;;;;;;4848648;29;20413;-48
2023/10/02 09:22:34;;;;;;;13.53;12.73;;;31.80;36.90;;;;;;4848567;29;20932;-44
2023/10/02 09:25:26;;;;;;;13.43;12.53;;;32.20;35.80;;;;;;4849044;29;20426;-46
2023/10/02 09:28:13;;;;;;;12.90;12.00;;;32.10;34.80;;;;;;4848766;29;20520;-47
2023/10/02 09:30:41;;;;;;;13.10;12.27;;;32.10;35.00;;;;;;4848497;29;20609;-44
2023/10/02 09:33:22;;;;;;;13.17;12.37;;;32.40;33.10;;;;;;4848671;29;20429;-48
2023/10/02 09:35:52;;;;;;;13.27;12.37;;;32.20;32.50;;;;;;4847885;29;20414;-45
2023/10/02 09:38:22;;;;;;;12.73;12.00;;;32.40;32.50;;;;;;4848226;29;20417;-46
2023/10/02 09:40:54;;;;;;;13.47;12.67;;;32.80;32.10;;;;;;4848315;29;20421;-42
2023/10/02 09:43:38;;;;;;;13.40;12.60;;;33.00;31.50;;;;;;4848214;29;20420;-48
2023/10/02 09:46:06;;;;;;;13.57;12.77;;;33.60;30.70;;;;;;4848049;29;20417;-43
2023/10/02 09:48:46;;;;;;;13.50;12.60;;;33.70;30.00;;;;;;4848392;29;20955;-42
2023/10/02 09:51:25;;;;;;;13.30;12.50;;;33.70;29.60;;;;;;4847691;29;20854;-48
2023/10/02 09:54:05;;;;;;;13.20;12.40;;;33.90;28.80;;;;;;4846792;29;20448;-48
2023/10/02 09:56:38;;;;;;;12.93;12.03;;;33.80;28.10;;;;;;4848329;29;20788;-47
2023/10/02 09:59:16;;;;;;;12.70;11.80;;;34.00;27.70;;;;;;4848340;29;20490;-47
2023/10/02 10:02:08;;;;;;;13.80;12.90;;;34.20;27.90;;;;;;4846264;29;20463;-49
2023/10/02 10:05:05;;;;;;;13.27;12.43;;;34.00;27.90;;;;;;4847279;29;20440;-45
2023/10/02 10:07:46;;;;;;;13.70;12.90;;;33.70;28.00;;;;;;4847535;29;20473;-44
2023/10/02 10:13:25;;;;;;;13.70;12.70;;;32.50;27.70;;;;;;4847933;29;21074;-43
2023/10/02 10:16:10;;;;;;;14.00;13.10;;;32.50;28.30;;;;;;4847746;29;20413;-47
2023/10/02 10:21:57;;;;;;;13.10;12.20;;;32.90;28.50;;;;;;4847852;29;20932;-41
2023/10/02 10:27:41;;;;;;;18.10;16.60;;;33.00;28.80;;;;;;4848136;29;21027;-43
2023/10/02 10:30:20;;;;;;;13.50;12.60;;;32.90;29.90;;;;;;4848098;29;21023;-44
2023/10/02 10:32:47;;;;;;;12.73;11.93;;;32.90;29.80;;;;;;4847933;29;21411;-49
2023/10/02 10:35:49;;;;;;;13.30;12.40;;;32.80;30.40;;;;;;4847455;29;20783;-42
2023/10/02 10:38:28;;;;;;;13.43;12.53;;;32.50;28.80;;;;;;4826827;29;20440;-45
2023/10/02 10:41:00;;;;;;;13.40;12.60;;;32.50;29.30;;;;;;4847744;29;20798;-44
2023/10/02 10:43:43;;;;;;;14.43;13.43;;;32.40;29.60;;;;;;4847610;29;20432;-42
2023/10/02 10:46:22;;;;;;;13.67;12.77;;;32.50;30.10;;;;;;4847480;29;20520;-42
2023/10/02 10:49:07;;;;;;;12.73;11.93;;;32.70;30.80;;;;;;4847737;29;20537;-41
2023/10/02 10:51:39;;;;;;;14.20;13.30;;;33.10;29.20;;;;;;4847203;29;20837;-46
2023/10/02 10:54:12;;;;;;;13.57;12.67;;;33.40;28.30;;;;;;4847535;29;20429;-43
2023/10/02 10:56:45;;;;;;;12.50;11.70;;;33.60;28.20;;;;;;4847569;29;20459;-43
2023/10/02 10:59:12;;;;;;;13.53;12.73;;;34.00;26.80;;;;;;4846004;29;20487;-43
2023/10/02 11:01:55;;;;;;;12.37;11.47;;;34.30;26.60;;;;;;4847484;29;20437;-45
2023/10/02 11:04:26;;;;;;;12.97;12.17;;;34.60;27.00;;;;;;4847741;29;20432;-44
2023/10/02 11:06:53;;;;;;;12.97;12.07;;;34.80;27.20;;;;;;4847489;29;20532;-47
2023/10/02 11:09:18;;;;;;;14.33;13.37;;;35.10;26.00;;;;;;4847066;29;20473;-48
2023/10/02 11:11:53;;;;;;;14.60;13.50;;;35.20;26.60;;;;;;4847701;29;20877;-46
2023/10/02 11:14:44;;;;;;;13.43;12.53;;;35.40;26.40;;;;;;4847528;29;20195;-44
2023/10/02 11:17:11;;;;;;;12.77;11.97;;;35.70;25.40;;;;;;4847160;29;20508;-46
2023/10/02 11:19:46;;;;;;;14.20;13.20;;;35.70;25.40;;;;;;4847605;29;20443;-44
2023/10/02 11:22:16;;;;;;;13.10;12.30;;;36.10;24.70;;;;;;4847115;29;20521;-47
2023/10/02 11:24:52;;;;;;;14.57;13.67;;;36.20;25.30;;;;;;4846895;29;20516;-48
2023/10/02 11:27:19;;;;;;;14.20;13.33;;;36.50;24.60;;;;;;4847237;29;20560;-50
2023/10/02 11:30:02;;;;;;;13.93;13.10;;;36.50;24.50;;;;;;4847381;29;20786;-48
2023/10/02 11:32:53;;;;;;;13.40;12.60;;;36.80;23.70;;;;;;4845776;29;20668;-47
2023/10/02 11:35:20;;;;;;;12.70;11.77;;;36.90;22.30;;;;;;4847286;29;20445;-47
2023/10/02 11:37:47;;;;;;;12.77;11.97;;;36.50;22.60;;;;;;4850406;29;20968;-43
2023/10/02 11:40:13;;;;;;;13.57;12.67;;;36.50;22.80;;;;;;4850931;29;20457;-49
2023/10/02 11:42:40;;;;;;;13.23;12.53;;;36.10;23.10;;;;;;4850196;29;20516;-46
2023/10/02 11:45:07;;;;;;;12.87;12.07;;;35.60;24.00;;;;;;4850359;29;20469;-46
2023/10/02 11:47:33;;;;;;;14.30;13.50;;;35.00;24.80;;;;;;4850288;29;20757;-46
2023/10/02 11:49:59;;;;;;;12.83;12.07;;;34.30;26.50;;;;;;4850253;29;20737;-45
2023/10/02 11:52:25;;;;;;;12.80;12.00;;;34.20;27.50;;;;;;4850233;29;20180;-49
2023/10/02 11:54:51;;;;;;;12.67;11.87;;;34.40;26.70;;;;;;4850345;29;20440;-47
2023/10/02 11:57:16;;;;;;;13.40;12.50;;;34.70;26.10;;;;;;4850540;29;20240;-46
2023/10/02 11:59:45;;;;;;;13.40;12.50;;;35.40;25.50;;;;;;4850135;29;20554;-45
2023/10/02 12:02:11;;;;;;;13.00;12.20;;;36.00;25.90;;;;;;4850120;29;20762;-46
2023/10/02 12:04:40;;;;;;;12.13;11.43;;;36.90;24.50;;;;;;4850397;29;20426;-47
2023/10/02 12:07:06;;;;;;;11.77;11.17;;;37.50;23.20;;;;;;4850332;29;20197;-48
2023/10/02 12:09:33;;;;;;;11.40;10.70;;;37.80;22.00;;;;;;4849860;29;21043;-44
2023/10/02 12:12:00;;;;;;;11.50;10.80;;;37.40;21.40;;;;;;4850240;29;20793;-45
2023/10/02 12:14:27;;;;;;;11.43;10.83;;;36.30;22.10;;;;;;4850151;29;20882;-45
2023/10/02 12:16:57;;;;;;;10.80;10.30;;;36.50;22.80;;;;;;4849748;29;20912;-44
2023/10/02 12:19:26;;;;;;;12.20;11.40;;;36.60;23.20;;;;;;4849964;29;20828;-45
2023/10/02 12:21:52;;;;;;;10.90;10.30;;;36.60;23.50;;;;;;4849937;29;20805;-46
2023/10/02 12:24:19;;;;;;;11.27;10.63;;;36.90;23.00;;;;;;4849886;29;20426;-47
2023/10/02 12:26:46;;;;;;;11.50;10.90;;;37.10;22.40;;;;;;4849448;29;20456;-46
2023/10/02 12:29:12;;;;;;;11.10;10.50;;;37.10;22.50;;;;;;4849482;29;20429;-48
2023/10/02 12:31:37;;;;;;;11.70;11.10;;;37.30;22.20;;;;;;4849210;29;20772;-43
2023/10/02 12:34:05;;;;;;;12.10;11.50;;;37.30;22.20;;;;;;4849699;29;20188;-49
2023/10/02 12:36:31;;;;;;;11.43;10.80;;;36.00;22.20;;;;;;4849528;29;20558;-43
2023/10/02 12:39:00;;;;;;;10.97;10.47;;;35.50;23.10;;;;;;4849528;29;20460;-45
2023/10/02 12:41:28;;;;;;;10.87;10.30;;;35.20;22.90;;;;;;4849482;29;20482;-47
2023/10/02 12:43:56;;;;;;;11.50;10.90;;;35.30;23.20;;;;;;4849164;29;20425;-45
2023/10/02 12:46:27;;;;;;;11.73;11.10;;;35.20;23.30;;;;;;4849054;29;20456;-43
2023/10/02 12:48:57;;;;;;;11.90;11.20;;;35.50;24.10;;;;;;4849194;29;20422;-44
2023/10/02 12:51:24;;;;;;;11.10;10.50;;;35.90;24.10;;;;;;4849218;29;20933;-47
2023/10/02 12:53:50;;;;;;;12.33;11.63;;;36.40;24.40;;;;;;4849234;29;20896;-44
2023/10/02 12:56:21;;;;;;;11.90;11.20;;;36.80;23.30;;;;;;4849295;29;20425;-42
2023/10/02 12:58:56;;;;;;;11.60;11.00;;;36.80;21.10;;;;;;4849115;29;20436;-47
2023/10/02 13:01:29;;;;;;;12.17;11.47;;;36.30;21.40;;;;;;4849106;29;20893;-46
2023/10/02 13:03:55;;;;;;;11.80;11.10;;;36.10;22.90;;;;;;4849019;29;20417;-45
2023/10/02 13:06:24;;;;;;;12.73;12.03;;;35.80;22.10;;;;;;4848815;29;20425;-44
2023/10/02 13:08:49;;;;;;;11.77;11.17;;;35.50;22.80;;;;;;4848926;29;20472;-46
2023/10/02 13:11:19;;;;;;;11.47;10.67;;;35.70;22.70;;;;;;4848632;29;20421;-48
2023/10/02 13:13:51;;;;;;;11.77;11.17;;;35.70;22.10;;;;;;4848953;29;20279;-46
2023/10/02 13:16:18;;;;;;;12.47;11.77;;;36.10;23.00;;;;;;4848554;29;20712;-46
2023/10/02 13:18:44;;;;;;;11.00;10.40;;;36.40;23.00;;;;;;4848909;29;20421;-44
2023/10/02 13:21:14;;;;;;;11.70;11.10;;;36.30;22.00;;;;;;4848870;29;20421;-43
2023/10/02 13:23:40;;;;;;;11.37;10.77;;;36.20;22.20;;;;;;4848747;29;20467;-46
2023/10/02 13:26:08;;;;;;;11.17;10.57;;;36.20;22.30;;;;;;4848311;29;20444;-47
2023/10/02 13:28:34;;;;;;;10.73;10.13;;;36.30;21.70;;;;;;4848692;29;20418;-46
2023/10/02 13:31:16;;;;;;;11.40;10.70;;;36.20;22.10;;;;;;4848448;29;20421;-48
2023/10/02 13:33:51;;;;;;;10.60;10.00;;;36.20;21.60;;;;;;4848150;29;20425;-47
2023/10/02 13:36:24;;;;;;;11.53;10.93;;;36.30;22.00;;;;;;4848555;29;20924;-48
2023/10/02 13:38:56;;;;;;;11.03;10.43;;;36.30;22.90;;;;;;4847914;29;20429;-43
2023/10/02 13:41:23;;;;;;;10.83;10.20;;;36.00;22.90;;;;;;4847681;29;20425;-49
2023/10/02 13:43:52;;;;;;;11.30;10.70;;;36.30;22.30;;;;;;4848412;29;20453;-44
2023/10/02 13:46:20;;;;;;;11.17;10.67;;;36.40;21.60;;;;;;4848195;29;20486;-46